Arbor, Missouri
Current Conditions -  °F | °C
As of 1:53 PM on Thursday 18 Dec 2014 (Local Time) from KCGI Reporting Station
Overcast Overcast  
Wind Chill: 30°   Ceiling: 900
Heat Index: 35°   Visibility: 9mi
Dew Point: 33°   Wind: 6mph
Humidity: 92%   Direction: 70°ENE
Pressure: 30.23"   Gusts: NA
Location:  37.1651°N, 89.623°W
Report Text: KCGI 181953Z 07005KT 9SM OVC009 02/01 A3023 RMK AO2 CIG 008V013 SLP238 T00170006
Loading
Personal Weather Stations






























Interactive Weather Map New forecast layout! Learn more

10-Day Weather Forecast

Advertisements
Track Severe Weather on mobile